Time,TemperatureF,DewpointF,PressureIn,WindDirection,WindDirectionDegrees,WindSpeedMPH,WindSpeedGustMPH,Humidity,HourlyPrecipIn,Conditions,Clouds,dailyrainin,SoftwareType,DateUTC
2013-05-23 00:03:00,55.5,54.4,29.77,NW,309,0.0,0.0,96,0.00,,,0.00,Wunderground v.1.15,2013-05-23 05:03:00,
2013-05-23 00:09:00,55.5,54.4,29.77,NW,313,0.0,0.0,96,0.00,,,0.00,Wunderground v.1.15,2013-05-23 05:09:00,
2013-05-23 00:14:00,55.5,54.4,29.77,WNW,297,0.0,0.0,96,0.00,,,0.00,Wunderground v.1.15,2013-05-23 05:14:00,
2013-05-23 00:20:00,55.6,54.5,29.77,WNW,299,0.0,0.0,96,0.00,,,0.00,Wunderground v.1.15,2013-05-23 05:20:00,
2013-05-23 00:25:00,55.6,54.5,29.77,WNW,298,0.0,0.0,96,0.00,,,0.01,Wunderground v.1.15,2013-05-23 05:25:00,
2013-05-23 00:32:00,55.7,54.6,29.77,NW,309,0.0,0.0,96,0.00,,,0.01,Wunderground v.1.15,2013-05-23 05:32:00,
2013-05-23 00:38:00,55.8,54.7,29.78,NW,305,0.0,0.0,96,0.00,,,0.01,Wunderground v.1.15,2013-05-23 05:38:00,
2013-05-23 00:44:00,55.8,54.7,29.78,NW,304,0.0,0.0,96,0.00,,,0.01,Wunderground v.1.15,2013-05-23 05:44:00,
2013-05-23 00:50:00,55.9,54.8,29.78,NW,313,0.0,0.0,96,0.00,,,0.01,Wunderground v.1.15,2013-05-23 05:50:00,
2013-05-23 00:55:00,55.9,54.8,29.78,NW,315,0.0,0.0,96,0.00,,,0.01,Wunderground v.1.15,2013-05-23 05:55:00,
2013-05-23 01:00:00,56.0,54.9,29.78,NW,317,0.0,0.0,96,0.00,,,0.01,Wunderground v.1.15,2013-05-23 06:00:00,
2013-05-23 01:06:00,56.2,55.4,29.78,NW,319,0.0,0.0,97,0.00,,,0.01,Wunderground v.1.15,2013-05-23 06:06:00,
2013-05-23 01:11:00,56.3,55.5,29.78,NW,324,0.0,0.0,97,0.00,,,0.01,Wunderground v.1.15,2013-05-23 06:11:00,
2013-05-23 01:16:00,56.4,55.6,29.78,NNW,328,0.0,0.0,97,0.00,,,0.01,Wunderground v.1.15,2013-05-23 06:16:00,
2013-05-23 01:22:00,56.6,55.8,29.78,NNW,329,0.0,0.0,97,0.00,,,0.01,Wunderground v.1.15,2013-05-23 06:22:00,
2013-05-23 01:28:00,56.7,55.9,29.78,NNW,334,0.0,0.0,97,0.00,,,0.01,Wunderground v.1.15,2013-05-23 06:28:00,
2013-05-23 01:33:00,56.7,55.9,29.78,NNW,340,0.0,0.0,97,0.00,,,0.01,Wunderground v.1.15,2013-05-23 06:33:00,
2013-05-23 01:38:00,56.8,56.0,29.79,NW,322,0.0,0.0,97,0.00,,,0.01,Wunderground v.1.15,2013-05-23 06:38:00,
2013-05-23 01:44:00,56.7,55.9,29.79,NNW,344,0.0,0.0,97,0.00,,,0.01,Wunderground v.1.15,2013-05-23 06:44:00,
2013-05-23 01:50:00,56.7,55.6,29.79,North,360,0.0,0.0,96,0.00,,,0.01,Wunderground v.1.15,2013-05-23 06:50:00,
2013-05-23 01:56:00,56.7,55.6,29.79,North,355,0.0,0.0,96,0.00,,,0.01,Wunderground v.1.15,2013-05-23 06:56:00,
2013-05-23 02:03:00,56.7,55.6,29.79,North,5,0.0,0.0,96,0.00,,,0.01,Wunderground v.1.15,2013-05-23 07:03:00,
2013-05-23 02:08:00,56.7,55.6,29.79,NNW,348,0.0,0.0,96,0.00,,,0.01,Wunderground v.1.15,2013-05-23 07:08:00,
2013-05-23 02:13:00,56.6,55.5,29.80,NNW,344,0.0,0.0,96,0.00,,,0.01,Wunderground v.1.15,2013-05-23 07:13:00,
2013-05-23 02:18:00,56.6,55.5,29.80,NNW,348,0.0,0.0,96,0.00,,,0.01,Wunderground v.1.15,2013-05-23 07:18:00,
2013-05-23 02:23:00,56.6,55.2,29.80,North,355,0.0,0.0,95,0.00,,,0.01,Wunderground v.1.15,2013-05-23 07:23:00,
2013-05-23 02:28:00,56.4,55.0,29.80,North,355,0.0,0.0,95,0.00,,,0.01,Wunderground v.1.15,2013-05-23 07:28:00,
2013-05-23 02:33:00,56.2,54.8,29.80,North,350,0.0,0.0,95,0.00,,,0.01,Wunderground v.1.15,2013-05-23 07:33:00,
2013-05-23 02:38:00,55.9,54.5,29.80,NNW,334,0.0,0.0,95,0.00,,,0.01,Wunderground v.1.15,2013-05-23 07:38:00,
2013-05-23 02:43:00,55.7,54.3,29.81,NNW,338,0.0,0.0,95,0.00,,,0.01,Wunderground v.1.15,2013-05-23 07:43:00,
2013-05-23 02:48:00,55.6,54.5,29.81,NNW,344,0.0,0.0,96,0.00,,,0.01,Wunderground v.1.15,2013-05-23 07:48:00,
2013-05-23 02:53:00,55.5,54.4,29.81,NNW,346,0.0,0.0,96,0.00,,,0.01,Wunderground v.1.15,2013-05-23 07:53:00,
2013-05-23 02:58:00,55.5,54.4,29.81,NNW,348,0.0,0.0,96,0.00,,,0.01,Wunderground v.1.15,2013-05-23 07:58:00,
2013-05-23 03:03:00,55.4,54.3,29.81,North,355,0.0,0.0,96,0.00,,,0.01,Wunderground v.1.15,2013-05-23 08:03:00,
2013-05-23 03:08:00,55.4,54.3,29.82,NNW,339,0.0,0.0,96,0.00,,,0.01,Wunderground v.1.15,2013-05-23 08:08:00,
2013-05-23 03:13:00,55.3,54.2,29.82,NNW,348,0.0,0.0,96,0.00,,,0.01,Wunderground v.1.15,2013-05-23 08:13:00,
2013-05-23 03:18:00,55.3,54.2,29.82,North,355,0.0,0.0,96,0.00,,,0.01,Wunderground v.1.15,2013-05-23 08:18:00,
2013-05-23 03:23:00,55.2,54.1,29.82,NNW,347,0.0,0.0,96,0.00,,,0.01,Wunderground v.1.15,2013-05-23 08:23:00,
2013-05-23 03:28:00,55.1,54.0,29.83,North,355,0.0,0.0,96,0.00,,,0.01,Wunderground v.1.15,2013-05-23 08:28:00,
2013-05-23 03:33:00,55.1,54.0,29.83,North,355,0.0,0.0,96,0.00,,,0.01,Wunderground v.1.15,2013-05-23 08:33:00,
2013-05-23 03:38:00,55.0,53.9,29.83,North,360,0.0,0.0,96,0.00,,,0.01,Wunderground v.1.15,2013-05-23 08:38:00,
2013-05-23 03:43:00,55.0,53.9,29.83,North,355,0.0,0.0,96,0.00,,,0.01,Wunderground v.1.15,2013-05-23 08:43:00,
2013-05-23 03:48:00,54.8,53.7,29.83,North,355,0.0,0.0,96,0.00,,,0.01,Wunderground v.1.15,2013-05-23 08:48:00,
2013-05-23 03:53:00,54.6,53.5,29.83,North,350,0.0,0.0,96,0.00,,,0.01,Wunderground v.1.15,2013-05-23 08:53:00,
2013-05-23 03:58:00,54.5,53.4,29.84,North,350,0.0,0.0,96,0.00,,,0.01,Wunderground v.1.15,2013-05-23 08:58:00,
2013-05-23 04:03:00,54.4,53.3,29.84,North,5,0.0,0.0,96,0.00,,,0.02,Wunderground v.1.15,2013-05-23 09:03:00,
2013-05-23 04:08:00,54.2,53.1,29.84,North,360,0.0,0.0,96,0.00,,,0.02,Wunderground v.1.15,2013-05-23 09:08:00,
2013-05-23 04:13:00,54.2,53.1,29.84,North,5,0.0,0.0,96,0.00,,,0.02,Wunderground v.1.15,2013-05-23 09:13:00,
2013-05-23 04:18:00,54.2,53.1,29.85,North,360,0.0,0.0,96,0.00,,,0.02,Wunderground v.1.15,2013-05-23 09:18:00,
2013-05-23 04:23:00,54.3,53.2,29.86,North,355,0.0,0.0,96,0.00,,,0.02,Wunderground v.1.15,2013-05-23 09:23:00,
2013-05-23 04:28:00,54.3,53.2,29.86,North,360,0.0,0.0,96,0.00,,,0.02,Wunderground v.1.15,2013-05-23 09:28:00,
2013-05-23 04:33:00,54.4,53.0,29.87,North,5,0.0,0.0,95,0.00,,,0.02,Wunderground v.1.15,2013-05-23 09:33:00,
2013-05-23 04:38:00,54.4,53.0,29.87,NNE,15,0.0,0.0,95,0.00,,,0.02,Wunderground v.1.15,2013-05-23 09:38:00,
2013-05-23 04:43:00,54.4,53.0,29.87,North,355,0.0,0.0,95,0.00,,,0.02,Wunderground v.1.15,2013-05-23 09:43:00,
2013-05-23 04:48:00,54.5,52.8,29.87,North,5,0.0,0.0,94,0.00,,,0.02,Wunderground v.1.15,2013-05-23 09:48:00,
2013-05-23 04:53:00,54.6,52.9,29.88,North,360,0.0,0.0,94,0.00,,,0.02,Wunderground v.1.15,2013-05-23 09:53:00,
2013-05-23 04:58:00,54.6,52.6,29.88,North,360,0.0,0.0,93,0.00,,,0.02,Wunderground v.1.15,2013-05-23 09:58:00,
2013-05-23 05:03:00,54.6,52.6,29.88,North,355,0.0,0.0,93,0.00,,,0.02,Wunderground v.1.15,2013-05-23 10:03:00,
2013-05-23 05:08:00,54.5,52.5,29.88,NNE,19,0.0,0.0,93,0.00,,,0.02,Wunderground v.1.15,2013-05-23 10:08:00,
2013-05-23 05:13:00,54.5,52.5,29.89,North,5,0.0,0.0,93,0.00,,,0.02,Wunderground v.1.15,2013-05-23 10:13:00,
2013-05-23 05:18:00,54.4,52.4,29.89,NNE,19,0.0,0.0,93,0.00,,,0.02,Wunderground v.1.15,2013-05-23 10:18:00,
2013-05-23 05:23:00,54.4,52.4,29.89,NNE,17,0.0,0.0,93,0.00,,,0.02,Wunderground v.1.15,2013-05-23 10:23:00,
2013-05-23 05:28:00,54.3,52.3,29.90,North,9,0.0,0.0,93,0.00,,,0.02,Wunderground v.1.15,2013-05-23 10:28:00,
2013-05-23 05:36:00,54.2,52.2,29.90,North,5,0.0,0.0,93,0.00,,,0.02,Wunderground v.1.15,2013-05-23 10:36:00,
2013-05-23 05:41:00,54.3,52.3,29.90,NNE,13,0.0,0.0,93,0.00,,,0.02,Wunderground v.1.15,2013-05-23 10:41:00,
2013-05-23 05:46:00,54.3,52.3,29.91,North,9,0.0,0.0,93,0.00,,,0.02,Wunderground v.1.15,2013-05-23 10:46:00,
2013-05-23 05:52:00,54.4,52.4,29.91,North,5,0.0,0.0,93,0.00,,,0.02,Wunderground v.1.15,2013-05-23 10:52:00,
2013-05-23 05:57:00,54.4,52.1,29.92,North,11,0.0,0.0,92,0.00,,,0.02,Wunderground v.1.15,2013-05-23 10:57:00,
2013-05-23 06:02:00,54.3,52.0,29.92,North,360,0.0,0.0,92,0.00,,,0.02,Wunderground v.1.15,2013-05-23 11:02:00,
2013-05-23 06:08:00,54.4,52.1,29.92,North,11,0.0,0.0,92,0.00,,,0.02,Wunderground v.1.15,2013-05-23 11:08:00,
2013-05-23 06:13:00,54.4,52.1,29.92,NNE,31,0.0,0.0,92,0.00,,,0.02,Wunderground v.1.15,2013-05-23 11:13:00,
2013-05-23 06:18:00,54.4,52.1,29.93,NNE,15,0.0,0.0,92,0.00,,,0.02,Wunderground v.1.15,2013-05-23 11:18:00,
2013-05-23 06:23:00,54.3,52.0,29.93,NNE,28,0.0,0.0,92,0.00,,,0.02,Wunderground v.1.15,2013-05-23 11:23:00,
2013-05-23 06:28:00,54.3,51.7,29.94,NNW,342,0.0,0.0,91,0.00,,,0.02,Wunderground v.1.15,2013-05-23 11:28:00,
2013-05-23 06:33:00,54.3,51.7,29.95,North,10,0.0,0.0,91,0.00,,,0.02,Wunderground v.1.15,2013-05-23 11:33:00,
2013-05-23 06:38:00,54.3,51.7,29.95,North,5,0.0,0.0,91,0.00,,,0.02,Wunderground v.1.15,2013-05-23 11:38:00,
2013-05-23 06:43:00,54.4,51.8,29.95,NNE,17,0.0,0.0,91,0.00,,,0.02,Wunderground v.1.15,2013-05-23 11:43:00,
2013-05-23 06:48:00,54.4,51.8,29.95,NNE,22,0.0,0.0,91,0.00,,,0.02,Wunderground v.1.15,2013-05-23 11:48:00,
2013-05-23 06:53:00,54.4,51.8,29.96,NNE,22,0.0,0.0,91,0.00,,,0.02,Wunderground v.1.15,2013-05-23 11:53:00,
2013-05-23 06:58:00,54.3,51.7,29.96,North,9,0.0,0.0,91,0.00,,,0.02,Wunderground v.1.15,2013-05-23 11:58:00,
2013-05-23 07:03:00,54.4,51.5,29.97,NNE,13,0.0,0.0,90,0.00,,,0.02,Wunderground v.1.15,2013-05-23 12:03:00,
2013-05-23 07:08:00,54.6,51.7,29.97,North,360,0.0,0.0,90,0.00,,,0.02,Wunderground v.1.15,2013-05-23 12:08:00,
2013-05-23 07:13:00,54.6,51.7,29.97,NNE,17,0.0,0.0,90,0.00,,,0.02,Wunderground v.1.15,2013-05-23 12:13:00,
2013-05-23 07:18:00,54.7,51.8,29.98,North,355,0.0,0.0,90,0.00,,,0.02,Wunderground v.1.15,2013-05-23 12:18:00,
2013-05-23 07:23:00,54.7,51.8,29.98,NNE,31,0.0,0.0,90,0.00,,,0.02,Wunderground v.1.15,2013-05-23 12:23:00,
2013-05-23 07:28:00,54.8,51.9,29.98,NNE,14,0.0,0.0,90,0.00,,,0.02,Wunderground v.1.15,2013-05-23 12:28:00,
2013-05-23 07:33:00,54.8,51.9,29.98,NE,36,0.0,0.0,90,0.00,,,0.02,Wunderground v.1.15,2013-05-23 12:33:00,
2013-05-23 07:38:00,54.9,52.0,29.99,NNE,23,0.0,0.0,90,0.00,,,0.02,Wunderground v.1.15,2013-05-23 12:38:00,
2013-05-23 07:43:00,55.0,52.1,29.99,North,9,0.0,0.0,90,0.00,,,0.02,Wunderground v.1.15,2013-05-23 12:43:00,
2013-05-23 07:48:00,54.9,52.0,29.99,NNE,13,0.0,0.0,90,0.00,,,0.02,Wunderground v.1.15,2013-05-23 12:48:00,
2013-05-23 07:53:00,54.9,52.0,30.00,NNE,23,0.0,0.0,90,0.00,,,0.02,Wunderground v.1.15,2013-05-23 12:53:00,
2013-05-23 07:58:00,54.8,51.9,30.00,NNE,25,0.0,0.0,90,0.00,,,0.02,Wunderground v.1.15,2013-05-23 12:58:00,
2013-05-23 08:10:00,54.6,51.7,30.00,NNE,16,0.0,0.0,90,0.00,,,0.02,Wunderground v.1.15,2013-05-23 13:10:00,
2013-05-23 08:15:00,54.4,51.5,30.01,North,9,0.0,0.0,90,0.00,,,0.02,Wunderground v.1.15,2013-05-23 13:15:00,
2013-05-23 08:20:00,54.3,51.4,30.01,North,5,0.0,0.0,90,0.00,,,0.02,Wunderground v.1.15,2013-05-23 13:20:00,
2013-05-23 08:25:00,54.3,51.7,30.02,NNE,18,0.0,0.0,91,0.00,,,0.02,Wunderground v.1.15,2013-05-23 13:25:00,
2013-05-23 08:30:00,54.4,51.5,30.02,North,5,0.0,0.0,90,0.00,,,0.02,Wunderground v.1.15,2013-05-23 13:30:00,
2013-05-23 08:35:00,54.5,51.9,30.02,NNE,13,0.0,0.0,91,0.00,,,0.02,Wunderground v.1.15,2013-05-23 13:35:00,
2013-05-23 08:40:00,54.5,51.6,30.03,North,5,0.0,0.0,90,0.00,,,0.02,Wunderground v.1.15,2013-05-23 13:40:00,
2013-05-23 08:52:00,54.5,51.6,30.04,North,5,0.0,0.0,90,0.00,,,0.02,Wunderground v.1.15,2013-05-23 13:52:00,
2013-05-23 08:57:00,54.5,51.6,30.04,NNE,18,0.0,0.0,90,0.00,,,0.02,Wunderground v.1.15,2013-05-23 13:57:00,
2013-05-23 09:10:00,55.1,51.6,30.04,North,355,0.0,0.0,88,0.00,,,0.02,Wunderground v.1.15,2013-05-23 14:10:00,
2013-05-23 09:15:00,55.6,52.1,30.04,NE,36,0.0,0.0,88,0.00,,,0.02,Wunderground v.1.15,2013-05-23 14:15:00,
2013-05-23 09:20:00,56.0,52.8,30.05,North,355,0.0,0.0,89,0.00,,,0.02,Wunderground v.1.15,2013-05-23 14:20:00,
2013-05-23 09:30:00,56.1,51.7,30.06,NNE,21,0.0,0.0,85,0.00,,,0.02,Wunderground v.1.15,2013-05-23 14:30:00,
2013-05-23 09:35:00,55.9,51.8,30.06,North,355,0.0,0.0,86,0.00,,,0.02,Wunderground v.1.15,2013-05-23 14:35:00,
2013-05-23 09:40:00,56.1,52.3,30.06,North,355,0.0,0.0,87,0.00,,,0.02,Wunderground v.1.15,2013-05-23 14:40:00,
2013-05-23 09:45:00,56.2,52.1,30.06,NNE,19,0.0,0.0,86,0.00,,,0.02,Wunderground v.1.15,2013-05-23 14:45:00,
2013-05-23 09:50:00,56.5,52.4,30.07,North,355,0.0,0.0,86,0.00,,,0.02,Wunderground v.1.15,2013-05-23 14:50:00,
2013-05-23 10:01:00,56.9,52.4,30.06,NNE,28,0.0,0.0,85,0.00,,,0.02,Wunderground v.1.15,2013-05-23 15:01:00,
2013-05-23 10:22:00,57.8,52.3,30.07,North,5,0.0,0.0,82,0.00,,,0.02,Wunderground v.1.15,2013-05-23 15:22:00,
2013-05-23 10:27:00,57.3,52.2,30.07,NNE,16,0.0,0.0,83,0.00,,,0.02,Wunderground v.1.15,2013-05-23 15:27:00,
2013-05-23 10:39:00,58.0,53.2,30.08,NNE,25,0.0,0.0,84,0.00,,,0.02,Wunderground v.1.15,2013-05-23 15:39:00,
2013-05-23 10:44:00,58.4,53.9,30.08,NNE,13,0.0,0.0,85,0.00,,,0.02,Wunderground v.1.15,2013-05-23 15:44:00,
2013-05-23 10:49:00,59.5,55.3,30.08,NNE,31,0.0,0.0,86,0.00,,,0.02,Wunderground v.1.15,2013-05-23 15:49:00,
2013-05-23 10:54:00,59.4,53.9,30.08,North,11,0.0,0.0,82,0.00,,,0.02,Wunderground v.1.15,2013-05-23 15:54:00,
2013-05-23 10:59:00,59.2,54.0,30.08,NE,44,0.0,0.0,83,0.00,,,0.02,Wunderground v.1.15,2013-05-23 15:59:00,
2013-05-23 11:04:00,60.2,55.7,30.08,North,360,0.0,0.0,85,0.00,,,0.02,Wunderground v.1.15,2013-05-23 16:04:00,
2013-05-23 11:09:00,61.4,56.2,30.08,NNE,20,0.0,0.0,83,0.00,,,0.02,Wunderground v.1.15,2013-05-23 16:09:00,
2013-05-23 11:20:00,60.6,54.0,30.09,North,360,0.0,0.0,79,0.00,,,0.02,Wunderground v.1.15,2013-05-23 16:20:00,
2013-05-23 11:25:00,60.4,54.9,30.09,North,5,0.0,0.0,82,0.00,,,0.02,Wunderground v.1.15,2013-05-23 16:25:00,
2013-05-23 11:30:00,61.3,56.1,30.09,NE,52,0.0,0.0,83,0.00,,,0.02,Wunderground v.1.15,2013-05-23 16:30:00,
2013-05-23 11:35:00,61.3,54.7,30.09,North,350,0.0,0.0,79,0.00,,,0.02,Wunderground v.1.15,2013-05-23 16:35:00,
2013-05-23 11:40:00,60.3,53.8,30.09,NNE,18,0.0,0.0,79,0.00,,,0.02,Wunderground v.1.15,2013-05-23 16:40:00,
2013-05-23 11:50:00,60.6,53.7,30.09,North,9,0.0,0.0,78,0.00,,,0.02,Wunderground v.1.15,2013-05-23 16:50:00,
2013-05-23 12:00:00,61.6,55.7,30.10,North,10,0.0,0.0,81,0.00,,,0.02,Wunderground v.1.15,2013-05-23 17:00:00,
2013-05-23 12:06:00,62.4,55.1,30.10,NNW,348,0.0,0.0,77,0.00,,,0.02,Wunderground v.1.15,2013-05-23 17:06:00,
2013-05-23 12:20:00,62.3,54.6,30.10,North,11,0.0,0.0,76,0.00,,,0.02,Wunderground v.1.15,2013-05-23 17:20:00,
2013-05-23 12:30:00,62.7,53.9,30.10,North,5,0.0,0.0,73,0.00,,,0.02,Wunderground v.1.15,2013-05-23 17:30:00,
2013-05-23 12:35:00,62.7,54.3,30.10,NNE,24,0.0,0.0,74,0.00,,,0.02,Wunderground v.1.15,2013-05-23 17:35:00,
2013-05-23 12:40:00,63.2,53.3,30.10,North,10,0.0,0.0,70,0.00,,,0.02,Wunderground v.1.15,2013-05-23 17:40:00,
2013-05-23 12:50:00,63.6,54.4,30.09,North,355,0.0,0.0,72,0.00,,,0.02,Wunderground v.1.15,2013-05-23 17:50:00,
2013-05-23 13:00:00,63.6,52.8,30.10,North,5,0.0,0.0,68,0.00,,,0.02,Wunderground v.1.15,2013-05-23 18:00:00,
2013-05-23 13:08:00,64.1,53.3,30.10,North,11,0.0,0.0,68,0.00,,,0.02,Wunderground v.1.15,2013-05-23 18:08:00,
2013-05-23 13:13:00,64.7,54.7,30.10,NNE,15,0.0,0.0,70,0.00,,,0.02,Wunderground v.1.15,2013-05-23 18:13:00,
2013-05-23 13:18:00,64.9,52.4,30.10,NNE,17,0.0,0.0,64,0.00,,,0.02,Wunderground v.1.15,2013-05-23 18:18:00,
2013-05-23 13:23:00,65.0,53.8,30.11,NNW,333,0.0,0.0,67,0.00,,,0.02,Wunderground v.1.15,2013-05-23 18:23:00,
2013-05-23 13:28:00,65.5,53.4,30.10,North,360,0.0,0.0,65,0.00,,,0.02,Wunderground v.1.15,2013-05-23 18:28:00,
2013-05-23 13:41:00,65.0,52.5,30.10,NNW,342,0.0,0.0,64,0.00,,,0.02,Wunderground v.1.15,2013-05-23 18:41:00,
2013-05-23 13:46:00,64.5,51.6,30.10,North,355,0.0,0.0,63,0.00,,,0.02,Wunderground v.1.15,2013-05-23 18:46:00,
2013-05-23 13:53:00,65.1,50.4,30.10,North,355,0.0,0.0,59,0.00,,,0.02,Wunderground v.1.15,2013-05-23 18:53:00,
2013-05-23 13:58:00,65.6,53.1,30.10,North,355,0.0,0.0,64,0.00,,,0.02,Wunderground v.1.15,2013-05-23 18:58:00,
2013-05-23 14:03:00,65.9,50.7,30.10,NNE,13,0.0,0.0,58,0.00,,,0.02,Wunderground v.1.15,2013-05-23 19:03:00,
2013-05-23 14:08:00,66.1,52.3,30.11,NNE,17,0.0,0.0,61,0.00,,,0.02,Wunderground v.1.15,2013-05-23 19:08:00,
2013-05-23 14:13:00,66.5,49.8,30.11,NNW,345,0.0,0.0,55,0.00,,,0.02,Wunderground v.1.15,2013-05-23 19:13:00,
2013-05-23 14:18:00,65.9,51.2,30.11,NNW,338,0.0,0.0,59,0.00,,,0.02,Wunderground v.1.15,2013-05-23 19:18:00,
2013-05-23 14:23:00,66.2,50.5,30.11,North,5,0.0,0.0,57,0.00,,,0.02,Wunderground v.1.15,2013-05-23 19:23:00,
2013-05-23 14:28:00,66.3,52.0,30.11,North,355,0.0,0.0,60,0.00,,,0.02,Wunderground v.1.15,2013-05-23 19:28:00,
2013-05-23 14:33:00,66.2,51.0,30.11,NNE,23,0.0,0.0,58,0.00,,,0.02,Wunderground v.1.15,2013-05-23 19:33:00,
2013-05-23 14:38:00,66.5,53.1,30.12,NNE,17,0.0,0.0,62,0.00,,,0.02,Wunderground v.1.15,2013-05-23 19:38:00,
2013-05-23 14:43:00,67.0,51.7,30.12,North,5,0.0,0.0,58,0.00,,,0.02,Wunderground v.1.15,2013-05-23 19:43:00,
2013-05-23 14:48:00,66.7,52.8,30.12,NE,34,0.0,0.0,61,0.00,,,0.02,Wunderground v.1.15,2013-05-23 19:48:00,
2013-05-23 14:53:00,67.2,52.4,30.12,North,5,0.0,0.0,59,0.00,,,0.02,Wunderground v.1.15,2013-05-23 19:53:00,
2013-05-23 14:58:00,67.1,51.8,30.12,North,360,0.0,0.0,58,0.00,,,0.02,Wunderground v.1.15,2013-05-23 19:58:00,
2013-05-23 15:03:00,67.9,51.6,30.13,NNE,16,0.0,0.0,56,0.00,,,0.02,Wunderground v.1.15,2013-05-23 20:03:00,
2013-05-23 15:08:00,68.0,51.2,30.13,NNE,32,0.0,0.0,55,0.00,,,0.02,Wunderground v.1.15,2013-05-23 20:08:00,
2013-05-23 15:13:00,67.9,53.0,30.13,NNE,20,0.0,0.0,59,0.00,,,0.02,Wunderground v.1.15,2013-05-23 20:13:00,
2013-05-23 15:18:00,68.0,50.7,30.13,NNW,342,0.0,0.0,54,0.00,,,0.02,Wunderground v.1.15,2013-05-23 20:18:00,
2013-05-23 15:23:00,67.7,51.9,30.13,NNE,19,0.0,0.0,57,0.00,,,0.02,Wunderground v.1.15,2013-05-23 20:23:00,
2013-05-23 15:28:00,68.0,51.7,30.13,NNE,13,0.0,0.0,56,0.00,,,0.02,Wunderground v.1.15,2013-05-23 20:28:00,
2013-05-23 15:33:00,68.4,50.6,30.13,NNE,24,0.0,0.0,53,0.00,,,0.02,Wunderground v.1.15,2013-05-23 20:33:00,
2013-05-23 15:38:00,67.4,48.6,30.13,NNE,12,0.0,0.0,51,0.00,,,0.02,Wunderground v.1.15,2013-05-23 20:38:00,
2013-05-23 15:43:00,66.9,50.7,30.13,North,355,0.0,0.0,56,0.00,,,0.02,Wunderground v.1.15,2013-05-23 20:43:00,
2013-05-23 15:48:00,67.3,51.5,30.14,NNE,22,0.0,0.0,57,0.00,,,0.02,Wunderground v.1.15,2013-05-23 20:48:00,
2013-05-23 15:53:00,68.1,51.3,30.14,NE,34,0.0,0.0,55,0.00,,,0.02,Wunderground v.1.15,2013-05-23 20:53:00,
2013-05-23 15:58:00,68.6,49.2,30.13,NNE,26,0.0,0.0,50,0.00,,,0.02,Wunderground v.1.15,2013-05-23 20:58:00,
2013-05-23 16:03:00,67.9,49.6,30.13,NE,51,0.0,0.0,52,0.00,,,0.02,Wunderground v.1.15,2013-05-23 21:03:00,
2013-05-23 16:08:00,67.6,46.6,30.13,North,5,0.0,0.0,47,0.00,,,0.02,Wunderground v.1.15,2013-05-23 21:08:00,
2013-05-23 16:13:00,67.5,48.7,30.13,NNE,15,0.0,0.0,51,0.00,,,0.02,Wunderground v.1.15,2013-05-23 21:13:00,
2013-05-23 16:18:00,67.5,48.7,30.13,North,5,0.0,0.0,51,0.00,,,0.02,Wunderground v.1.15,2013-05-23 21:18:00,
2013-05-23 16:23:00,67.8,50.5,30.14,North,5,0.0,0.0,54,0.00,,,0.02,Wunderground v.1.15,2013-05-23 21:23:00,
2013-05-23 16:28:00,68.3,51.0,30.14,North,360,0.0,0.0,54,0.00,,,0.02,Wunderground v.1.15,2013-05-23 21:28:00,
2013-05-23 16:33:00,68.2,49.9,30.14,North,350,0.0,0.0,52,0.00,,,0.02,Wunderground v.1.15,2013-05-23 21:33:00,
2013-05-23 16:38:00,67.7,48.4,30.14,NNE,12,0.0,0.0,50,0.00,,,0.02,Wunderground v.1.15,2013-05-23 21:38:00,
2013-05-23 16:43:00,67.3,49.1,30.14,North,9,0.0,0.0,52,0.00,,,0.02,Wunderground v.1.15,2013-05-23 21:43:00,
2013-05-23 16:48:00,67.4,48.1,30.14,North,355,0.0,0.0,50,0.00,,,0.02,Wunderground v.1.15,2013-05-23 21:48:00,
2013-05-23 16:53:00,67.4,48.6,30.14,North,10,0.0,0.0,51,0.00,,,0.02,Wunderground v.1.15,2013-05-23 21:53:00,
2013-05-23 16:58:00,66.7,46.9,30.14,North,5,0.0,0.0,49,0.00,,,0.02,Wunderground v.1.15,2013-05-23 21:58:00,
2013-05-23 17:03:00,66.6,48.4,30.15,North,5,0.0,0.0,52,0.00,,,0.02,Wunderground v.1.15,2013-05-23 22:03:00,
2013-05-23 17:08:00,66.8,45.3,30.15,NNE,13,0.0,0.0,46,0.00,,,0.02,Wunderground v.1.15,2013-05-23 22:08:00,
2013-05-23 17:14:00,66.3,49.2,30.15,North,355,0.0,0.0,54,0.00,,,0.02,Wunderground v.1.15,2013-05-23 22:14:00,
2013-05-23 17:19:00,66.9,49.2,30.15,North,5,0.0,0.0,53,0.00,,,0.02,Wunderground v.1.15,2013-05-23 22:19:00,
2013-05-23 17:24:00,67.0,48.8,30.15,NNE,14,0.0,0.0,52,0.00,,,0.02,Wunderground v.1.15,2013-05-23 22:24:00,
2013-05-23 17:29:00,66.7,48.5,30.15,NNE,15,0.0,0.0,52,0.00,,,0.02,Wunderground v.1.15,2013-05-23 22:29:00,
2013-05-23 17:34:00,66.4,47.2,30.15,North,11,0.0,0.0,50,0.00,,,0.02,Wunderground v.1.15,2013-05-23 22:34:00,
2013-05-23 17:39:00,66.7,48.0,30.15,North,5,0.0,0.0,51,0.00,,,0.02,Wunderground v.1.15,2013-05-23 22:39:00,
2013-05-23 17:44:00,67.0,48.3,30.15,NNE,22,0.0,0.0,51,0.00,,,0.02,Wunderground v.1.15,2013-05-23 22:44:00,
2013-05-23 17:49:00,67.3,48.0,30.15,NNE,13,0.0,0.0,50,0.00,,,0.02,Wunderground v.1.15,2013-05-23 22:49:00,
2013-05-23 17:58:00,66.9,45.4,30.15,North,355,0.0,0.0,46,0.00,,,0.02,Wunderground v.1.15,2013-05-23 22:58:00,
2013-05-23 18:03:00,66.5,47.8,30.15,NNE,13,0.0,0.0,51,0.00,,,0.02,Wunderground v.1.15,2013-05-23 23:03:00,
2013-05-23 18:08:00,66.9,46.0,30.15,NNE,28,0.0,0.0,47,0.00,,,0.02,Wunderground v.1.15,2013-05-23 23:08:00,
2013-05-23 18:13:00,66.9,47.6,30.15,NNE,25,0.0,0.0,50,0.00,,,0.02,Wunderground v.1.15,2013-05-23 23:13:00,
2013-05-23 18:18:00,66.8,46.5,30.16,NNE,16,0.0,0.0,48,0.00,,,0.02,Wunderground v.1.15,2013-05-23 23:18:00,
2013-05-23 18:23:00,66.6,46.8,30.16,NNE,17,0.0,0.0,49,0.00,,,0.02,Wunderground v.1.15,2013-05-23 23:23:00,
2013-05-23 18:28:00,66.5,46.7,30.16,North,5,0.0,0.0,49,0.00,,,0.02,Wunderground v.1.15,2013-05-23 23:28:00,
2013-05-23 18:33:00,66.5,46.7,30.15,North,5,0.0,0.0,49,0.00,,,0.02,Wunderground v.1.15,2013-05-23 23:33:00,
2013-05-23 18:39:00,66.2,45.9,30.16,North,5,0.0,0.0,48,0.00,,,0.02,Wunderground v.1.15,2013-05-23 23:39:00,
2013-05-23 18:44:00,66.0,46.3,30.16,North,5,0.0,0.0,49,0.00,,,0.02,Wunderground v.1.15,2013-05-23 23:44:00,
2013-05-23 18:49:00,65.8,46.6,30.16,NNE,16,0.0,0.0,50,0.00,,,0.02,Wunderground v.1.15,2013-05-23 23:49:00,
2013-05-23 18:54:00,65.8,47.2,30.16,North,10,0.0,0.0,51,0.00,,,0.02,Wunderground v.1.15,2013-05-23 23:54:00,
2013-05-23 18:59:00,65.7,47.1,30.16,NNE,26,0.0,0.0,51,0.00,,,0.02,Wunderground v.1.15,2013-05-23 23:59:00,
2013-05-23 19:04:00,65.4,47.3,30.16,North,5,0.0,0.0,52,0.00,,,0.02,Wunderground v.1.15,2013-05-24 00:04:00,
2013-05-23 19:09:00,65.2,46.1,30.17,NNE,27,0.0,0.0,50,0.00,,,0.02,Wunderground v.1.15,2013-05-24 00:09:00,
2013-05-23 19:14:00,65.1,46.5,30.17,North,5,0.0,0.0,51,0.00,,,0.02,Wunderground v.1.15,2013-05-24 00:14:00,
2013-05-23 19:19:00,65.0,45.9,30.17,NE,40,0.0,0.0,50,0.00,,,0.02,Wunderground v.1.15,2013-05-24 00:19:00,
2013-05-23 19:24:00,64.9,45.8,30.17,NNE,15,0.0,0.0,50,0.00,,,0.02,Wunderground v.1.15,2013-05-24 00:24:00,
2013-05-23 19:29:00,64.7,45.6,30.17,North,5,0.0,0.0,50,0.00,,,0.02,Wunderground v.1.15,2013-05-24 00:29:00,
2013-05-23 19:34:00,64.5,45.4,30.17,North,11,0.0,0.0,50,0.00,,,0.02,Wunderground v.1.15,2013-05-24 00:34:00,
2013-05-23 19:39:00,64.2,44.6,30.17,North,9,0.0,0.0,49,0.00,,,0.02,Wunderground v.1.15,2013-05-24 00:39:00,
2013-05-23 19:44:00,64.0,45.5,30.17,North,9,0.0,0.0,51,0.00,,,0.02,Wunderground v.1.15,2013-05-24 00:44:00,
2013-05-23 19:49:00,63.8,46.3,30.18,North,5,0.0,0.0,53,0.00,,,0.02,Wunderground v.1.15,2013-05-24 00:49:00,
2013-05-23 19:55:00,63.6,46.6,30.18,North,5,0.0,0.0,54,0.00,,,0.02,Wunderground v.1.15,2013-05-24 00:55:00,
2013-05-23 20:00:00,63.3,45.9,30.18,North,5,0.0,0.0,53,0.00,,,0.02,Wunderground v.1.15,2013-05-24 01:00:00,
2013-05-23 20:05:00,63.1,46.7,30.18,North,5,0.0,0.0,55,0.00,,,0.02,Wunderground v.1.15,2013-05-24 01:05:00,
2013-05-23 20:10:00,62.8,46.4,30.18,North,5,0.0,0.0,55,0.00,,,0.02,Wunderground v.1.15,2013-05-24 01:10:00,
2013-05-23 20:15:00,62.3,45.9,30.18,North,5,0.0,0.0,55,0.00,,,0.02,Wunderground v.1.15,2013-05-24 01:15:00,
2013-05-23 20:20:00,61.8,45.9,30.18,North,5,0.0,0.0,56,0.00,,,0.02,Wunderground v.1.15,2013-05-24 01:20:00,
2013-05-23 20:25:00,61.3,45.9,30.18,North,5,0.0,0.0,57,0.00,,,0.02,Wunderground v.1.15,2013-05-24 01:25:00,
2013-05-23 20:30:00,60.7,45.4,30.19,North,9,0.0,0.0,57,0.00,,,0.02,Wunderground v.1.15,2013-05-24 01:30:00,
2013-05-23 20:35:00,60.3,45.9,30.19,North,9,0.0,0.0,59,0.00,,,0.02,Wunderground v.1.15,2013-05-24 01:35:00,
2013-05-23 20:40:00,59.8,45.9,30.19,North,9,0.0,0.0,60,0.00,,,0.02,Wunderground v.1.15,2013-05-24 01:40:00,
2013-05-23 20:45:00,59.4,46.4,30.19,North,9,0.0,0.0,62,0.00,,,0.02,Wunderground v.1.15,2013-05-24 01:45:00,
2013-05-23 20:50:00,59.0,46.4,30.19,North,9,0.0,0.0,63,0.00,,,0.02,Wunderground v.1.15,2013-05-24 01:50:00,
2013-05-23 20:55:00,58.5,46.8,30.19,North,9,0.0,0.0,65,0.00,,,0.02,Wunderground v.1.15,2013-05-24 01:55:00,
2013-05-23 21:00:00,58.1,46.4,30.19,North,9,0.0,0.0,65,0.00,,,0.02,Wunderground v.1.15,2013-05-24 02:00:00,
2013-05-23 21:05:00,57.7,46.4,30.19,North,9,0.0,0.0,66,0.00,,,0.02,Wunderground v.1.15,2013-05-24 02:05:00,
2013-05-23 21:10:00,57.3,46.4,30.19,North,9,0.0,0.0,67,0.00,,,0.02,Wunderground v.1.15,2013-05-24 02:10:00,
2013-05-23 21:15:00,56.9,46.1,30.20,North,9,0.0,0.0,67,0.00,,,0.02,Wunderground v.1.15,2013-05-24 02:15:00,
2013-05-23 21:20:00,56.7,46.3,30.20,North,9,0.0,0.0,68,0.00,,,0.02,Wunderground v.1.15,2013-05-24 02:20:00,
2013-05-23 21:25:00,56.5,46.4,30.20,North,9,0.0,0.0,69,0.00,,,0.02,Wunderground v.1.15,2013-05-24 02:25:00,
2013-05-23 21:30:00,56.3,46.3,30.20,North,9,0.0,0.0,69,0.00,,,0.02,Wunderground v.1.15,2013-05-24 02:30:00,
2013-05-23 21:35:00,56.0,46.4,30.20,North,9,0.0,0.0,70,0.00,,,0.02,Wunderground v.1.15,2013-05-24 02:35:00,
2013-05-23 21:40:00,55.7,46.4,30.21,North,9,0.0,0.0,71,0.00,,,0.02,Wunderground v.1.15,2013-05-24 02:40:00,
2013-05-23 21:45:00,55.4,46.5,30.21,North,9,0.0,0.0,72,0.00,,,0.02,Wunderground v.1.15,2013-05-24 02:45:00,
2013-05-23 21:50:00,55.1,46.6,30.21,North,9,0.0,0.0,73,0.00,,,0.02,Wunderground v.1.15,2013-05-24 02:50:00,
2013-05-23 21:55:00,54.8,46.3,30.21,North,9,0.0,0.0,73,0.00,,,0.02,Wunderground v.1.15,2013-05-24 02:55:00,
2013-05-23 22:00:00,54.5,46.4,30.22,North,9,0.0,0.0,74,0.00,,,0.02,Wunderground v.1.15,2013-05-24 03:00:00,
2013-05-23 22:05:00,54.4,46.3,30.22,North,9,0.0,0.0,74,0.00,,,0.02,Wunderground v.1.15,2013-05-24 03:05:00,
2013-05-23 22:10:00,54.2,46.4,30.22,North,9,0.0,0.0,75,0.00,,,0.02,Wunderground v.1.15,2013-05-24 03:10:00,
2013-05-23 22:15:00,54.0,46.3,30.22,North,9,0.0,0.0,75,0.00,,,0.02,Wunderground v.1.15,2013-05-24 03:15:00,
2013-05-23 22:20:00,53.8,46.4,30.22,North,9,0.0,0.0,76,0.00,,,0.02,Wunderground v.1.15,2013-05-24 03:20:00,
2013-05-23 22:25:00,53.6,46.2,30.22,North,9,0.0,0.0,76,0.00,,,0.02,Wunderground v.1.15,2013-05-24 03:25:00,
2013-05-23 22:30:00,53.4,46.4,30.23,North,9,0.0,0.0,77,0.00,,,0.02,Wunderground v.1.15,2013-05-24 03:30:00,
2013-05-23 22:35:00,53.1,46.4,30.23,North,9,0.0,0.0,78,0.00,,,0.02,Wunderground v.1.15,2013-05-24 03:35:00,
2013-05-23 22:40:00,52.9,46.6,30.23,North,9,0.0,0.0,79,0.00,,,0.02,Wunderground v.1.15,2013-05-24 03:40:00,
2013-05-23 22:45:00,52.6,46.3,30.22,North,9,0.0,0.0,79,0.00,,,0.02,Wunderground v.1.15,2013-05-24 03:45:00,
2013-05-23 22:50:00,52.4,46.1,30.23,North,9,0.0,0.0,79,0.00,,,0.02,Wunderground v.1.15,2013-05-24 03:50:00,
2013-05-23 22:55:00,52.3,46.3,30.23,North,9,0.0,0.0,80,0.00,,,0.02,Wunderground v.1.15,2013-05-24 03:55:00,
2013-05-23 23:00:00,52.1,46.1,30.23,North,9,0.0,0.0,80,0.00,,,0.02,Wunderground v.1.15,2013-05-24 04:00:00,
2013-05-23 23:02:00,52.1,46.1,30.23,North,9,0.0,0.0,80,0.00,,,0.02,Wunderground v.1.15,2013-05-24 04:02:00,
2013-05-23 23:03:00,52.1,46.1,30.23,North,9,0.0,0.0,80,0.00,,,0.02,Wunderground v.1.15,2013-05-24 04:03:00,
2013-05-23 23:08:00,51.8,46.2,30.23,North,9,0.0,0.0,81,0.00,,,0.02,Wunderground v.1.15,2013-05-24 04:08:00,
2013-05-23 23:13:00,51.6,46.3,30.23,North,9,0.0,0.0,82,0.00,,,0.02,Wunderground v.1.15,2013-05-24 04:13:00,
2013-05-23 23:18:00,51.4,46.1,30.23,North,9,0.0,0.0,82,0.00,,,0.02,Wunderground v.1.15,2013-05-24 04:18:00,
2013-05-23 23:23:00,51.3,46.0,30.23,North,9,0.0,0.0,82,0.00,,,0.02,Wunderground v.1.15,2013-05-24 04:23:00,
2013-05-23 23:28:00,51.3,46.0,30.23,North,9,0.0,0.0,82,0.00,,,0.02,Wunderground v.1.15,2013-05-24 04:28:00,
2013-05-23 23:33:00,51.3,46.0,30.23,North,9,0.0,0.0,82,0.00,,,0.02,Wunderground v.1.15,2013-05-24 04:33:00,
2013-05-23 23:38:00,51.3,46.0,30.23,North,9,0.0,0.0,82,0.00,,,0.02,Wunderground v.1.15,2013-05-24 04:38:00,
2013-05-23 23:43:00,51.3,45.7,30.23,North,9,0.0,0.0,81,0.00,,,0.02,Wunderground v.1.15,2013-05-24 04:43:00,
2013-05-23 23:48:00,51.3,45.7,30.24,North,9,0.0,0.0,81,0.00,,,0.02,Wunderground v.1.15,2013-05-24 04:48:00,
2013-05-23 23:53:00,51.2,45.6,30.24,North,9,0.0,0.0,81,0.00,,,0.02,Wunderground v.1.15,2013-05-24 04:53:00,